Time;durP1;ratioP1;P1;durP2;ratioP2;P2;SDS_P1;SDS_P2;PMS_P1;PMS_P2;Temp;Humidity;BMP_temperature;BMP_pressure;BME280_temperature;BME280_humidity;BME280_pressure;Samples;Min_cycle;Max_cycle;Signal;HPM_P1;HPM_P2
2021/08/10 00:01:04;;;;;;;11.20;6.40;;;26.80;56.60;;;;;;4199563;28;20049;-57
2021/08/10 00:03:06;;;;;;;10.75;6.78;;;26.80;56.60;;;;;;4199423;28;20045;-65
2021/08/10 00:05:09;;;;;;;13.20;6.13;;;26.80;56.60;;;;;;4199474;28;20069;-65
2021/08/10 00:07:11;;;;;;;13.70;7.35;;;26.80;56.50;;;;;;4199664;28;20048;-65
2021/08/10 00:09:13;;;;;;;9.48;6.70;;;26.80;56.50;;;;;;4199539;28;20049;-65
2021/08/10 00:11:15;;;;;;;9.88;6.22;;;26.80;56.50;;;;;;4199516;28;20048;-65
2021/08/10 00:13:19;;;;;;;13.15;6.32;;;26.80;56.50;;;;;;4199597;28;20053;-65
2021/08/10 00:15:21;;;;;;;13.98;7.25;;;26.80;56.60;;;;;;4199565;28;20049;-65
2021/08/10 00:17:23;;;;;;;14.90;7.35;;;26.80;56.60;;;;;;4199495;28;20045;-65
2021/08/10 00:19:25;;;;;;;8.65;6.75;;;26.80;56.50;;;;;;4199483;28;20053;-65
2021/08/10 00:21:27;;;;;;;11.25;7.03;;;26.80;56.60;;;;;;4199433;28;20067;-65
2021/08/10 00:23:29;;;;;;;9.55;6.97;;;26.80;56.60;;;;;;4198728;28;20041;-64
2021/08/10 00:25:31;;;;;;;12.93;7.10;;;26.70;56.70;;;;;;4198063;28;20051;-64
2021/08/10 00:27:34;;;;;;;14.90;6.95;;;26.80;56.70;;;;;;4198022;28;20049;-64
2021/08/10 00:29:36;;;;;;;13.85;7.43;;;26.80;56.70;;;;;;4198015;28;20049;-65
2021/08/10 00:31:38;;;;;;;10.70;7.35;;;26.80;56.90;;;;;;4198217;28;20290;-65
2021/08/10 00:33:40;;;;;;;9.73;6.43;;;26.80;56.90;;;;;;4198086;28;20048;-64
2021/08/10 00:35:42;;;;;;;9.63;6.50;;;26.90;57.00;;;;;;4198018;28;20053;-65
2021/08/10 00:37:44;;;;;;;8.25;6.40;;;26.90;57.00;;;;;;4197910;28;20053;-64
2021/08/10 00:39:46;;;;;;;10.57;6.40;;;26.80;57.10;;;;;;4197994;28;20123;-64
2021/08/10 00:41:48;;;;;;;10.82;6.28;;;26.80;57.30;;;;;;4197873;28;20049;-63
2021/08/10 00:43:50;;;;;;;12.90;6.75;;;26.80;57.50;;;;;;4198090;28;20045;-63
2021/08/10 00:45:52;;;;;;;11.82;5.93;;;26.70;57.60;;;;;;4197962;28;20053;-63
2021/08/10 00:47:54;;;;;;;10.50;6.40;;;26.80;57.70;;;;;;4197023;28;20056;-64
2021/08/10 00:49:56;;;;;;;11.63;6.95;;;26.80;57.80;;;;;;4197796;28;20071;-64
2021/08/10 00:51:59;;;;;;;11.40;6.45;;;26.80;57.90;;;;;;4197784;28;20045;-63
2021/08/10 00:54:03;;;;;;;11.02;5.78;;;26.70;57.90;;;;;;4198053;28;20053;-64
2021/08/10 00:56:06;;;;;;;11.27;6.28;;;26.70;57.90;;;;;;4200446;28;20064;-63
2021/08/10 00:58:10;;;;;;;8.15;6.13;;;26.80;58.20;;;;;;4201262;28;20055;-63
2021/08/10 01:00:12;;;;;;;9.90;5.97;;;26.80;58.20;;;;;;4201155;28;20055;-63
2021/08/10 01:02:14;;;;;;;10.13;6.25;;;26.80;58.30;;;;;;4201014;28;20328;-64
2021/08/10 01:04:17;;;;;;;11.80;6.68;;;26.80;58.40;;;;;;4201083;28;20040;-57
2021/08/10 01:06:38;;;;;;;9.27;6.05;;;26.70;58.40;;;;;;4200782;28;20083;-57
2021/08/10 01:08:54;;;;;;;10.13;6.22;;;26.70;58.40;;;;;;4201228;28;20045;-58
2021/08/10 01:11:22;;;;;;;9.13;6.15;;;26.70;58.50;;;;;;4200973;28;20045;-58
2021/08/10 01:13:55;;;;;;;10.70;6.22;;;26.80;58.50;;;;;;4200921;28;20050;-57
2021/08/10 01:16:12;;;;;;;9.25;6.18;;;26.80;58.60;;;;;;4200905;28;20045;-58
2021/08/10 01:18:25;;;;;;;10.55;6.15;;;26.70;58.80;;;;;;4200811;28;20053;-57
2021/08/10 01:20:46;;;;;;;10.18;6.13;;;26.70;58.90;;;;;;4200758;28;20048;-57
2021/08/10 01:22:52;;;;;;;9.73;5.22;;;26.70;59.00;;;;;;4200708;28;20045;-58
2021/08/10 01:25:33;;;;;;;10.63;5.75;;;26.70;59.00;;;;;;4200757;28;20045;-58
2021/08/10 01:27:48;;;;;;;13.10;6.20;;;26.60;59.00;;;;;;4192850;28;20067;-58
2021/08/10 01:30:13;;;;;;;11.30;5.88;;;26.70;59.20;;;;;;4200631;28;20124;-58
2021/08/10 01:32:15;;;;;;;7.93;6.07;;;26.60;59.20;;;;;;4200483;28;20105;-57
2021/08/10 01:34:24;;;;;;;8.00;5.30;;;26.70;59.20;;;;;;4200923;28;20074;-58
2021/08/10 01:36:27;;;;;;;9.38;5.43;;;26.70;59.30;;;;;;4200657;28;20048;-58
2021/08/10 01:38:32;;;;;;;9.95;6.15;;;26.60;59.30;;;;;;4200750;28;20087;-57
2021/08/10 01:40:34;;;;;;;7.30;6.07;;;26.70;59.40;;;;;;4200792;28;20105;-57
2021/08/10 01:42:38;;;;;;;8.20;6.32;;;26.70;59.50;;;;;;4200701;28;20045;-57
2021/08/10 01:44:40;;;;;;;6.38;4.93;;;26.60;59.50;;;;;;4200488;28;20100;-57
2021/08/10 01:46:46;;;;;;;7.93;6.00;;;26.70;59.50;;;;;;4200318;28;20452;-57
2021/08/10 01:48:49;;;;;;;6.65;5.28;;;26.70;59.70;;;;;;4200347;28;20075;-57
2021/08/10 01:50:53;;;;;;;9.95;5.07;;;26.70;59.60;;;;;;4200302;28;20395;-57
2021/08/10 01:52:55;;;;;;;8.00;6.13;;;26.60;59.70;;;;;;4200287;28;20055;-57
2021/08/10 01:54:58;;;;;;;8.50;4.95;;;26.60;59.70;;;;;;4200318;28;20070;-57
2021/08/10 01:57:01;;;;;;;9.52;6.20;;;26.60;59.70;;;;;;4200343;28;20048;-57
2021/08/10 01:59:05;;;;;;;6.80;5.50;;;26.60;59.70;;;;;;4200290;28;20049;-58
2021/08/10 02:01:07;;;;;;;7.25;5.32;;;26.60;59.80;;;;;;4200213;28;20079;-50
2021/08/10 02:03:12;;;;;;;7.25;5.07;;;26.60;59.80;;;;;;4200283;28;20452;-54
2021/08/10 02:05:15;;;;;;;7.53;4.97;;;26.70;59.60;;;;;;4200364;28;20060;-56
2021/08/10 02:07:19;;;;;;;5.40;4.82;;;26.60;59.50;;;;;;4199514;28;20045;-56
2021/08/10 02:09:21;;;;;;;9.27;5.63;;;26.50;59.50;;;;;;4201242;28;20067;-53
2021/08/10 02:11:25;;;;;;;6.70;4.95;;;26.50;59.90;;;;;;4201353;28;20401;-56
2021/08/10 02:13:27;;;;;;;7.35;5.93;;;26.40;60.30;;;;;;4201261;28;20052;-53
2021/08/10 02:15:31;;;;;;;7.00;4.60;;;26.40;60.20;;;;;;4201357;28;20053;-54
2021/08/10 02:17:33;;;;;;;7.10;4.78;;;26.40;60.30;;;;;;4201343;28;20044;-54
2021/08/10 02:19:35;;;;;;;11.32;5.28;;;26.40;60.50;;;;;;4201192;28;20055;-55
2021/08/10 02:22:03;;;;;;;6.25;4.50;;;26.40;60.60;;;;;;4201168;28;20081;-52
2021/08/10 02:24:17;;;;;;;7.40;4.10;;;26.30;60.80;;;;;;4201110;28;20045;-54
2021/08/10 02:26:20;;;;;;;11.82;4.55;;;26.30;60.90;;;;;;4201136;28;20045;-54
2021/08/10 02:28:24;;;;;;;11.00;4.32;;;26.30;60.80;;;;;;4201119;28;20047;-54
2021/08/10 02:30:30;;;;;;;7.40;4.93;;;26.30;60.90;;;;;;4201079;28;20070;-53
2021/08/10 02:32:33;;;;;;;5.45;4.53;;;26.30;60.70;;;;;;4201055;28;20751;-52
2021/08/10 02:34:37;;;;;;;7.05;4.10;;;26.40;60.70;;;;;;4200910;28;20048;-53
2021/08/10 02:36:39;;;;;;;7.13;4.47;;;26.40;60.60;;;;;;4201030;28;20045;-52
2021/08/10 02:38:42;;;;;;;6.90;4.28;;;26.40;60.60;;;;;;4200829;28;20290;-54
2021/08/10 02:40:47;;;;;;;5.55;4.40;;;26.40;60.50;;;;;;4200941;28;20132;-56
2021/08/10 02:42:53;;;;;;;6.85;4.90;;;26.30;60.70;;;;;;4200744;28;20044;-54
2021/08/10 02:44:58;;;;;;;8.65;4.40;;;26.40;60.80;;;;;;4200787;28;20104;-52
2021/08/10 02:47:00;;;;;;;7.97;4.90;;;26.30;60.90;;;;;;4200892;28;20102;-46
2021/08/10 02:49:02;;;;;;;4.95;4.07;;;26.30;61.00;;;;;;4200719;28;20044;-46
2021/08/10 02:51:04;;;;;;;6.13;4.32;;;26.30;61.00;;;;;;4200762;28;20049;-46
2021/08/10 02:53:06;;;;;;;6.30;4.22;;;26.30;60.90;;;;;;4200836;28;20053;-47
2021/08/10 02:55:08;;;;;;;6.13;4.72;;;26.30;60.80;;;;;;4200738;28;20505;-48
2021/08/10 02:57:33;;;;;;;5.63;4.35;;;26.30;60.70;;;;;;4200605;28;20053;-49
2021/08/10 02:59:41;;;;;;;5.23;4.30;;;26.30;60.80;;;;;;4200530;28;20045;-47
2021/08/10 03:01:49;;;;;;;5.70;4.43;;;26.40;60.70;;;;;;4200583;28;20049;-47
2021/08/10 03:03:54;;;;;;;7.20;4.68;;;26.30;60.70;;;;;;4200402;28;20045;-47
2021/08/10 03:05:59;;;;;;;6.57;4.28;;;26.40;60.70;;;;;;4200350;28;20053;-48
2021/08/10 03:08:03;;;;;;;9.35;4.10;;;26.30;60.90;;;;;;4200357;28;20041;-49
2021/08/10 03:10:06;;;;;;;6.15;4.50;;;26.40;60.70;;;;;;4200356;28;20045;-50
2021/08/10 03:12:09;;;;;;;11.43;5.35;;;26.30;60.70;;;;;;4199489;28;20045;-47
2021/08/10 03:14:12;;;;;;;6.40;4.35;;;26.30;60.90;;;;;;4200320;28;20059;-46
2021/08/10 03:16:16;;;;;;;9.65;4.40;;;26.40;60.80;;;;;;4200044;28;20044;-51
2021/08/10 03:18:26;;;;;;;7.65;4.90;;;26.40;61.00;;;;;;4199570;28;20044;-49
2021/08/10 03:20:31;;;;;;;9.77;4.80;;;26.30;60.90;;;;;;4199548;28;20045;-49
2021/08/10 03:22:35;;;;;;;7.93;4.53;;;26.40;60.80;;;;;;4199380;28;20045;-51
2021/08/10 03:24:38;;;;;;;11.60;4.95;;;26.40;60.80;;;;;;4198790;28;20053;-54
2021/08/10 03:26:41;;;;;;;6.72;5.20;;;26.40;60.60;;;;;;4198785;28;20102;-54
2021/08/10 03:28:45;;;;;;;11.85;4.47;;;26.40;60.40;;;;;;4198942;28;20090;-53
2021/08/10 03:30:48;;;;;;;7.18;4.28;;;26.40;60.40;;;;;;4198960;28;20072;-52
2021/08/10 03:32:52;;;;;;;7.80;4.60;;;26.50;60.20;;;;;;4198760;28;20049;-54
2021/08/10 03:34:55;;;;;;;7.50;4.70;;;26.50;60.20;;;;;;4198663;28;20542;-52
2021/08/10 03:36:59;;;;;;;11.20;4.78;;;26.50;60.20;;;;;;4198626;28;20051;-52
2021/08/10 03:39:01;;;;;;;7.13;4.05;;;26.50;60.20;;;;;;4198693;28;20044;-50
2021/08/10 03:41:07;;;;;;;8.20;4.78;;;26.50;60.20;;;;;;4198646;28;20045;-49
2021/08/10 03:43:09;;;;;;;7.00;4.53;;;26.50;60.20;;;;;;4198494;28;20101;-52
2021/08/10 03:45:13;;;;;;;9.95;4.78;;;26.50;60.10;;;;;;4197824;28;20056;-51
2021/08/10 03:47:16;;;;;;;7.27;4.17;;;26.50;60.10;;;;;;4198791;28;20095;-53
2021/08/10 03:49:23;;;;;;;6.80;4.18;;;26.50;60.10;;;;;;4198666;28;20566;-52
2021/08/10 03:51:27;;;;;;;9.63;4.75;;;26.50;60.20;;;;;;4198698;28;20059;-50
2021/08/10 03:53:31;;;;;;;7.60;4.60;;;26.50;60.20;;;;;;4198467;28;20049;-54
2021/08/10 03:55:34;;;;;;;6.05;4.13;;;26.50;60.20;;;;;;4198417;28;20045;-48
2021/08/10 03:57:39;;;;;;;7.05;3.92;;;26.50;60.20;;;;;;4198300;28;20056;-49
2021/08/10 03:59:42;;;;;;;6.10;4.55;;;26.50;60.20;;;;;;4198316;28;20055;-50
2021/08/10 04:01:48;;;;;;;9.93;4.32;;;26.50;60.20;;;;;;4198351;28;20045;-49
2021/08/10 04:03:54;;;;;;;8.38;4.68;;;26.50;60.20;;;;;;4198197;28;20049;-50
2021/08/10 04:05:59;;;;;;;10.52;4.10;;;26.50;60.20;;;;;;4198155;28;20078;-49
2021/08/10 04:08:02;;;;;;;8.57;4.35;;;26.50;60.20;;;;;;4197405;28;20104;-48
2021/08/10 04:10:04;;;;;;;8.73;4.57;;;26.50;60.20;;;;;;4198228;28;20041;-50
2021/08/10 04:12:09;;;;;;;8.43;4.63;;;26.50;60.20;;;;;;4198471;28;20079;-53
2021/08/10 04:14:13;;;;;;;7.45;4.90;;;26.50;60.10;;;;;;4198595;28;20045;-53
2021/08/10 04:16:17;;;;;;;8.57;4.20;;;26.50;60.20;;;;;;4198463;28;20055;-55
2021/08/10 04:18:22;;;;;;;6.97;4.40;;;26.50;60.20;;;;;;4198451;28;20358;-51
2021/08/10 04:20:24;;;;;;;9.40;4.57;;;26.50;60.20;;;;;;4198566;28;20055;-54
2021/08/10 04:22:26;;;;;;;7.20;4.32;;;26.50;60.30;;;;;;4198744;28;20055;-51
2021/08/10 04:24:28;;;;;;;7.68;4.40;;;26.50;60.20;;;;;;4198494;28;20075;-53
2021/08/10 04:26:30;;;;;;;7.13;3.65;;;26.50;60.30;;;;;;4198653;28;20057;-53
2021/08/10 04:28:32;;;;;;;7.03;4.35;;;26.50;60.30;;;;;;4198530;28;20041;-53
2021/08/10 04:30:34;;;;;;;8.52;4.90;;;26.50;60.20;;;;;;4197900;28;20045;-53
2021/08/10 04:32:36;;;;;;;8.27;4.35;;;26.50;60.50;;;;;;4198290;28;20055;-54
2021/08/10 04:34:39;;;;;;;6.50;4.20;;;26.50;60.40;;;;;;4198315;28;20048;-51
2021/08/10 04:36:41;;;;;;;9.07;4.47;;;26.50;60.50;;;;;;4198348;28;20044;-51
2021/08/10 04:38:43;;;;;;;9.65;3.90;;;26.50;60.40;;;;;;4198455;28;20045;-55
2021/08/10 04:40:45;;;;;;;7.90;3.83;;;26.50;60.40;;;;;;4198329;28;20049;-54
2021/08/10 04:42:47;;;;;;;8.23;4.68;;;26.50;60.40;;;;;;4198110;28;20059;-54
2021/08/10 04:44:49;;;;;;;5.68;4.07;;;26.50;60.40;;;;;;4198107;28;20101;-54
2021/08/10 04:46:51;;;;;;;5.05;4.30;;;26.50;60.40;;;;;;4197413;28;20045;-56
2021/08/10 04:48:54;;;;;;;6.70;4.40;;;26.50;60.40;;;;;;4198319;28;20052;-54
2021/08/10 04:50:56;;;;;;;6.97;4.82;;;26.50;60.40;;;;;;4198293;28;20049;-54
2021/08/10 04:52:58;;;;;;;12.27;4.68;;;26.50;60.40;;;;;;4198091;28;20045;-55
2021/08/10 04:55:00;;;;;;;7.57;4.97;;;26.50;60.40;;;;;;4197704;28;20098;-54
2021/08/10 04:57:02;;;;;;;7.28;4.55;;;26.50;60.40;;;;;;4198208;28;20053;-55
2021/08/10 04:59:04;;;;;;;9.00;5.05;;;26.60;60.40;;;;;;4198284;28;20109;-55
2021/08/10 05:01:06;;;;;;;6.72;4.38;;;26.60;60.50;;;;;;4198121;28;20049;-51
2021/08/10 05:03:09;;;;;;;6.90;4.85;;;26.50;60.40;;;;;;4197998;28;20060;-49
2021/08/10 05:05:11;;;;;;;8.93;4.93;;;26.50;60.30;;;;;;4197523;28;20050;-52
2021/08/10 05:07:13;;;;;;;9.13;4.85;;;26.50;60.40;;;;;;4197644;28;20068;-50
2021/08/10 05:09:15;;;;;;;6.32;4.25;;;26.50;60.30;;;;;;4197814;28;20049;-50
2021/08/10 05:11:17;;;;;;;6.53;4.88;;;26.50;60.50;;;;;;4197813;28;20052;-52
2021/08/10 05:13:19;;;;;;;7.80;4.63;;;26.50;60.40;;;;;;4197943;28;20048;-47
2021/08/10 05:15:21;;;;;;;11.80;5.40;;;26.50;60.50;;;;;;4197696;28;20048;-48
2021/08/10 05:17:23;;;;;;;7.45;4.68;;;26.50;60.50;;;;;;4197949;28;20080;-53
2021/08/10 05:19:25;;;;;;;5.60;4.35;;;26.50;60.50;;;;;;4197620;28;20045;-49
2021/08/10 05:21:27;;;;;;;7.78;5.20;;;26.50;60.60;;;;;;4197626;28;20053;-49
2021/08/10 05:23:35;;;;;;;7.53;4.68;;;26.60;60.60;;;;;;4197827;28;20052;-51
2021/08/10 05:25:37;;;;;;;7.32;5.32;;;26.60;60.60;;;;;;4197725;28;20045;-51
2021/08/10 05:27:39;;;;;;;8.82;5.15;;;26.60;60.60;;;;;;4197886;28;20041;-61
2021/08/10 05:29:41;;;;;;;5.13;4.47;;;26.60;60.80;;;;;;4197523;28;20099;-60
2021/08/10 05:31:45;;;;;;;5.70;4.40;;;26.60;60.70;;;;;;4197551;28;20490;-61
2021/08/10 05:33:47;;;;;;;9.45;5.35;;;26.60;60.60;;;;;;4197554;28;20049;-61
2021/08/10 05:35:49;;;;;;;7.75;4.53;;;26.60;60.70;;;;;;4197438;28;20045;-60
2021/08/10 05:37:51;;;;;;;5.88;4.57;;;26.60;60.70;;;;;;4198063;28;20041;-44
2021/08/10 05:39:53;;;;;;;9.90;4.95;;;26.60;60.70;;;;;;4198693;28;20049;-45
2021/08/10 05:41:55;;;;;;;7.68;5.10;;;26.60;60.70;;;;;;4199122;28;20041;-44
2021/08/10 05:43:56;;;;;;;9.57;4.85;;;26.50;60.70;;;;;;4201585;28;20049;-45
2021/08/10 05:45:58;;;;;;;7.22;4.60;;;26.60;60.60;;;;;;4201933;28;20045;-45
2021/08/10 05:48:00;;;;;;;8.48;5.38;;;26.60;60.60;;;;;;4201693;28;20045;-43
2021/08/10 05:50:03;;;;;;;11.77;5.00;;;26.60;60.60;;;;;;4201603;28;20118;-44
2021/08/10 05:52:05;;;;;;;7.00;4.82;;;26.60;60.70;;;;;;4201551;28;20473;-46
2021/08/10 05:54:12;;;;;;;10.95;5.25;;;26.60;60.60;;;;;;4201474;28;20115;-44
2021/08/10 05:56:14;;;;;;;7.35;4.30;;;26.60;60.60;;;;;;4201535;28;20055;-45
2021/08/10 05:58:16;;;;;;;9.23;4.63;;;26.60;60.50;;;;;;4201526;28;20064;-45
2021/08/10 06:00:18;;;;;;;7.18;4.72;;;26.60;60.50;;;;;;4201413;28;20064;-46
2021/08/10 06:02:20;;;;;;;5.63;4.40;;;26.60;60.50;;;;;;4201447;28;20048;-44
2021/08/10 06:04:22;;;;;;;7.80;4.95;;;26.60;60.50;;;;;;4201328;28;20051;-45
2021/08/10 06:06:24;;;;;;;8.95;4.75;;;26.60;60.50;;;;;;4201252;28;20057;-45
2021/08/10 06:08:27;;;;;;;7.95;5.13;;;26.60;60.50;;;;;;4200522;28;20049;-47
2021/08/10 06:10:29;;;;;;;8.05;5.00;;;26.60;60.60;;;;;;4201278;28;20041;-46
2021/08/10 06:12:33;;;;;;;9.95;4.75;;;26.60;60.60;;;;;;4201196;28;20049;-47
2021/08/10 06:14:35;;;;;;;8.25;5.43;;;26.60;60.70;;;;;;4201255;28;20049;-45
2021/08/10 06:16:38;;;;;;;6.10;4.60;;;26.60;60.70;;;;;;4201355;28;20076;-44
2021/08/10 06:18:40;;;;;;;9.40;4.82;;;26.60;60.60;;;;;;4201215;28;20049;-44
2021/08/10 06:20:42;;;;;;;7.53;4.80;;;26.60;60.60;;;;;;4201117;28;20048;-47
2021/08/10 06:22:44;;;;;;;9.52;5.20;;;26.60;60.60;;;;;;4201034;28;20051;-43
2021/08/10 06:24:46;;;;;;;6.85;4.90;;;26.60;60.60;;;;;;4201096;28;20049;-45
2021/08/10 06:26:47;;;;;;;5.63;4.95;;;26.60;60.60;;;;;;4201014;28;20049;-45
2021/08/10 06:28:50;;;;;;;10.23;5.18;;;26.70;61.10;;;;;;4200395;28;20041;-54
2021/08/10 06:30:52;;;;;;;13.68;5.68;;;26.60;61.00;;;;;;4199971;28;20079;-52
2021/08/10 06:32:54;;;;;;;12.77;4.93;;;26.60;61.30;;;;;;4199540;28;20098;-48
2021/08/10 06:34:56;;;;;;;14.05;5.60;;;26.60;61.10;;;;;;4200026;28;20057;-49
2021/08/10 06:36:58;;;;;;;10.43;5.03;;;26.60;61.10;;;;;;4199924;28;20053;-48
2021/08/10 06:39:00;;;;;;;11.57;4.90;;;26.50;61.20;;;;;;4199743;28;20044;-48
2021/08/10 06:41:02;;;;;;;10.88;5.50;;;26.50;61.20;;;;;;4199528;28;20055;-52
2021/08/10 06:43:04;;;;;;;8.95;5.22;;;26.50;61.30;;;;;;4200139;28;20048;-45
2021/08/10 06:45:08;;;;;;;21.30;7.10;;;26.50;61.50;;;;;;4200209;28;20555;-45
2021/08/10 06:47:10;;;;;;;14.70;5.38;;;26.40;62.10;;;;;;4200506;28;20066;-46
2021/08/10 06:49:12;;;;;;;14.30;5.63;;;26.40;62.20;;;;;;4200318;28;20101;-47
2021/08/10 06:51:14;;;;;;;9.80;5.38;;;26.40;62.10;;;;;;4200373;28;20044;-44
2021/08/10 06:53:17;;;;;;;13.80;5.95;;;26.40;62.10;;;;;;4199875;28;20041;-46
2021/08/10 06:55:19;;;;;;;7.93;4.90;;;26.40;62.00;;;;;;4200253;28;20082;-44
2021/08/10 06:57:21;;;;;;;11.65;5.32;;;26.40;62.00;;;;;;4200252;28;20078;-45
2021/08/10 06:59:23;;;;;;;19.30;6.50;;;26.40;62.20;;;;;;4200232;28;20132;-44
2021/08/10 07:01:25;;;;;;;8.95;5.50;;;26.40;62.30;;;;;;4200141;28;20044;-44
2021/08/10 07:03:28;;;;;;;5.80;5.18;;;26.40;62.30;;;;;;4199213;28;20083;-57
2021/08/10 07:05:30;;;;;;;11.48;6.15;;;26.40;62.30;;;;;;4198881;28;20057;-57
2021/08/10 07:07:32;;;;;;;11.75;5.63;;;26.40;62.30;;;;;;4199182;28;20072;-57
2021/08/10 07:09:34;;;;;;;9.93;5.82;;;26.40;62.20;;;;;;4199257;28;20048;-57
2021/08/10 07:11:41;;;;;;;11.25;5.47;;;26.40;62.10;;;;;;4199233;28;20072;-57
2021/08/10 07:13:43;;;;;;;10.38;5.93;;;26.40;62.20;;;;;;4199214;28;20051;-57
2021/08/10 07:15:45;;;;;;;14.52;5.80;;;26.40;62.30;;;;;;4198713;28;20507;-57
2021/08/10 07:17:47;;;;;;;19.20;5.88;;;26.40;62.20;;;;;;4198892;28;20049;-55
2021/08/10 07:19:49;;;;;;;23.40;7.60;;;26.40;62.20;;;;;;4198944;28;20116;-55
2021/08/10 07:21:51;;;;;;;15.68;7.25;;;26.40;62.30;;;;;;4198954;28;20059;-54
2021/08/10 07:23:53;;;;;;;16.52;6.50;;;26.40;62.40;;;;;;4199285;28;20049;-49
2021/08/10 07:25:55;;;;;;;12.82;6.18;;;26.40;62.10;;;;;;4199878;28;20051;-50
2021/08/10 07:27:57;;;;;;;12.73;5.80;;;26.40;62.10;;;;;;4198402;28;20041;-47
2021/08/10 07:30:00;;;;;;;16.45;6.88;;;26.40;61.90;;;;;;4199289;28;20049;-50
2021/08/10 07:32:02;;;;;;;12.73;6.30;;;26.50;62.00;;;;;;4199103;28;20067;-51
2021/08/10 07:34:04;;;;;;;11.77;6.13;;;26.50;62.10;;;;;;4199471;28;20140;-49
2021/08/10 07:36:06;;;;;;;17.48;6.32;;;26.50;62.10;;;;;;4199500;28;20066;-50
2021/08/10 07:38:08;;;;;;;11.13;6.40;;;26.50;62.20;;;;;;4199126;28;20041;-47
2021/08/10 07:40:12;;;;;;;6.28;5.47;;;26.50;62.10;;;;;;4199794;28;20041;-51
2021/08/10 07:42:14;;;;;;;12.80;6.07;;;26.50;62.10;;;;;;4199401;28;20049;-49
2021/08/10 07:44:16;;;;;;;15.32;6.18;;;26.50;62.10;;;;;;4198987;28;20041;-51
2021/08/10 07:46:19;;;;;;;14.68;5.88;;;26.50;62.00;;;;;;4199196;28;20041;-54
2021/08/10 07:48:21;;;;;;;8.60;6.13;;;26.50;61.90;;;;;;4198415;28;20041;-58
2021/08/10 07:50:23;;;;;;;11.93;6.32;;;26.50;61.90;;;;;;4198446;28;20044;-57
2021/08/10 07:52:25;;;;;;;10.43;6.70;;;26.60;61.90;;;;;;4198460;28;20045;-57
2021/08/10 07:54:27;;;;;;;13.13;6.55;;;26.60;61.80;;;;;;4198461;28;20068;-57
2021/08/10 07:56:29;;;;;;;8.63;6.50;;;26.50;61.70;;;;;;4198308;28;20045;-51
2021/08/10 07:58:31;;;;;;;10.68;6.40;;;26.60;61.80;;;;;;4198275;28;20045;-52
2021/08/10 08:00:33;;;;;;;8.35;6.32;;;26.60;61.70;;;;;;4198151;28;20045;-58
2021/08/10 08:02:35;;;;;;;22.27;14.77;;;26.60;62.00;;;;;;4199149;28;20045;-61
2021/08/10 08:04:38;;;;;;;12.77;11.32;;;26.60;62.20;;;;;;4198442;28;20108;-44
2021/08/10 08:06:40;;;;;;;12.65;8.38;;;26.60;61.70;;;;;;4199262;28;20435;-45
2021/08/10 08:08:42;;;;;;;14.85;11.00;;;26.70;61.80;;;;;;4199375;28;20051;-46
2021/08/10 08:10:44;;;;;;;14.00;10.82;;;26.60;61.80;;;;;;4199429;28;20069;-46
2021/08/10 08:12:56;;;;;;;16.33;10.43;;;26.70;61.80;;;;;;4199428;28;20041;-45
2021/08/10 08:14:58;;;;;;;13.45;9.75;;;26.70;61.60;;;;;;4198759;28;20053;-45
2021/08/10 08:17:00;;;;;;;15.40;9.13;;;26.70;61.60;;;;;;4198224;28;20080;-44
2021/08/10 08:19:02;;;;;;;10.80;8.57;;;26.70;61.70;;;;;;4198380;28;20467;-56
2021/08/10 08:21:04;;;;;;;11.98;9.10;;;26.70;61.60;;;;;;4197826;28;20057;-45
2021/08/10 08:23:06;;;;;;;15.60;9.77;;;26.70;61.60;;;;;;4198076;28;20059;-53
2021/08/10 08:25:09;;;;;;;18.17;10.68;;;26.70;61.60;;;;;;4198247;28;20052;-43
2021/08/10 08:27:11;;;;;;;13.52;9.50;;;26.70;61.60;;;;;;4198269;28;20068;-43
2021/08/10 08:29:13;;;;;;;12.73;9.55;;;26.70;61.40;;;;;;4197931;28;20110;-62
2021/08/10 08:31:15;;;;;;;11.65;9.23;;;26.70;61.40;;;;;;4197074;28;20057;-63
2021/08/10 08:33:17;;;;;;;12.13;8.80;;;26.70;61.40;;;;;;4197030;28;20087;-62
2021/08/10 08:35:19;;;;;;;11.23;8.57;;;26.80;61.40;;;;;;4197037;28;20075;-61
2021/08/10 08:37:21;;;;;;;14.77;8.85;;;26.80;61.30;;;;;;4196971;28;20063;-62
2021/08/10 08:39:23;;;;;;;12.55;8.40;;;26.80;61.30;;;;;;4197468;28;20049;-45
2021/08/10 08:41:26;;;;;;;11.00;8.70;;;26.70;61.40;;;;;;4197520;28;20048;-48
2021/08/10 08:43:28;;;;;;;11.63;8.95;;;26.70;61.50;;;;;;4197570;28;20053;-48
2021/08/10 08:45:30;;;;;;;10.57;8.88;;;26.80;61.30;;;;;;4197375;28;20052;-48
2021/08/10 08:47:32;;;;;;;12.55;7.90;;;26.80;61.30;;;;;;4197338;28;20063;-45
2021/08/10 08:49:37;;;;;;;14.45;8.38;;;26.80;61.20;;;;;;4197313;28;20103;-45
2021/08/10 08:51:44;;;;;;;12.02;7.88;;;26.80;61.20;;;;;;4197260;28;20047;-47
2021/08/10 08:54:04;;;;;;;15.77;9.13;;;26.80;61.20;;;;;;4197211;28;20045;-46
2021/08/10 08:56:06;;;;;;;12.32;7.32;;;26.80;61.20;;;;;;4197316;28;20067;-43
2021/08/10 08:58:08;;;;;;;9.15;7.25;;;26.80;61.20;;;;;;4197394;28;20049;-50
2021/08/10 09:00:17;;;;;;;10.52;7.30;;;26.90;61.20;;;;;;4196853;28;20109;-54
2021/08/10 09:02:19;;;;;;;11.00;7.88;;;26.80;61.30;;;;;;4196660;28;20055;-47
2021/08/10 09:04:21;;;;;;;11.90;7.85;;;26.90;61.30;;;;;;4194828;28;20057;-59
2021/08/10 10:40:08;;;;;;;14.73;13.20;;;26.70;62.20;;;;;;3905652;27;10001639;-60
2021/08/10 10:42:13;;;;;;;15.52;11.70;;;26.70;62.10;;;;;;4261486;28;20043;-60
2021/08/10 10:44:35;;;;;;;18.83;14.63;;;26.70;62.00;;;;;;4261472;28;20043;-56
2021/08/10 10:46:39;;;;;;;15.38;10.15;;;26.80;62.10;;;;;;4261369;28;20047;-56
2021/08/10 11:01:34;;;;;;;6.03;4.18;;;26.80;61.80;;;;;;4245601;27;20396;-44
2021/08/10 11:03:37;;;;;;;14.05;4.88;;;27.30;60.60;;;;;;4245041;28;20047;-45
2021/08/10 11:05:39;;;;;;;15.15;5.50;;;27.30;60.20;;;;;;4244371;28;20065;-56
2021/08/10 11:07:44;;;;;;;10.98;4.72;;;27.20;60.40;;;;;;4244262;28;20044;-58
2021/08/10 11:09:49;;;;;;;14.70;4.30;;;27.20;60.30;;;;;;4244120;28;20074;-59
2021/08/10 11:11:55;;;;;;;16.90;5.13;;;27.10;60.80;;;;;;4243966;28;20051;-45
2021/08/10 11:13:57;;;;;;;31.90;8.45;;;27.20;60.30;;;;;;4244131;28;20043;-45
2021/08/10 11:15:59;;;;;;;15.00;5.35;;;27.20;60.60;;;;;;4244068;28;20069;-44
2021/08/10 11:18:07;;;;;;;39.58;12.35;;;27.10;60.30;;;;;;4244219;28;20150;-57
2021/08/10 11:20:26;;;;;;;23.02;8.60;;;27.20;60.60;;;;;;4245034;28;20112;-40
2021/08/10 11:22:29;;;;;;;20.30;7.28;;;27.20;60.40;;;;;;4242994;28;20048;-54
2021/08/10 11:24:33;;;;;;;29.75;8.88;;;27.10;60.40;;;;;;4244775;28;20107;-45
2021/08/10 11:26:37;;;;;;;22.73;7.13;;;27.10;60.60;;;;;;4244270;28;20075;-43
2021/08/10 11:28:50;;;;;;;17.77;6.85;;;27.10;60.60;;;;;;4244791;28;20051;-45
2021/08/10 11:30:55;;;;;;;16.13;5.50;;;27.10;60.70;;;;;;4244683;28;20058;-44
2021/08/10 11:33:00;;;;;;;13.98;5.82;;;27.10;60.90;;;;;;4244886;28;20044;-45
2021/08/10 11:35:20;;;;;;;20.13;6.88;;;27.10;61.10;;;;;;4233572;28;20056;-44
2021/08/10 11:37:24;;;;;;;19.48;7.60;;;27.00;61.30;;;;;;4227809;28;20049;-43
2021/08/10 11:39:26;;;;;;;17.40;6.13;;;27.10;61.40;;;;;;4229565;28;20060;-44
2021/08/10 11:41:29;;;;;;;17.85;6.93;;;27.20;61.30;;;;;;4227714;28;20045;-47
2021/08/10 11:43:43;;;;;;;16.25;6.68;;;27.00;61.60;;;;;;4227850;28;20049;-43
2021/08/10 11:45:46;;;;;;;9.52;4.85;;;27.10;61.40;;;;;;4227524;28;20044;-47
2021/08/10 11:47:58;;;;;;;13.90;5.20;;;27.10;61.40;;;;;;4226445;28;20048;-50
2021/08/10 11:50:00;;;;;;;15.43;7.65;;;27.10;61.30;;;;;;4226092;28;20052;-48
2021/08/10 11:52:03;;;;;;;14.48;6.47;;;27.10;61.10;;;;;;4228449;28;20076;-48
2021/08/10 11:54:19;;;;;;;22.23;8.52;;;27.20;61.00;;;;;;4235788;28;20051;-39
2021/08/10 11:56:27;;;;;;;25.55;9.18;;;27.10;61.00;;;;;;4230230;28;20045;-60
2021/08/10 11:58:43;;;;;;;12.18;4.25;;;27.00;61.50;;;;;;4226874;28;20040;-46
2021/08/10 12:01:01;;;;;;;18.20;5.80;;;27.00;61.20;;;;;;4239822;28;20063;-41
2021/08/10 12:03:04;;;;;;;12.30;3.92;;;27.00;61.10;;;;;;4233635;28;20052;-40
2021/08/10 12:05:08;;;;;;;10.32;4.43;;;27.10;61.00;;;;;;4233734;28;20048;-62
2021/08/10 12:07:12;;;;;;;11.90;6.18;;;27.00;60.90;;;;;;4229950;28;20045;-61
2021/08/10 12:09:16;;;;;;;6.27;3.50;;;27.10;60.80;;;;;;4227101;28;20064;-61
2021/08/10 12:11:23;;;;;;;9.90;4.72;;;27.10;60.70;;;;;;4218428;28;20072;-61
2021/08/10 12:13:26;;;;;;;8.45;3.35;;;27.10;60.40;;;;;;4215750;28;20052;-60
2021/08/10 12:15:42;;;;;;;11.10;4.60;;;27.10;60.60;;;;;;4215463;28;20044;-61
2021/08/10 12:17:54;;;;;;;6.53;3.35;;;27.10;60.60;;;;;;4215759;28;20053;-59
2021/08/10 12:19:56;;;;;;;10.05;3.42;;;27.20;60.80;;;;;;4215997;28;20053;-59
2021/08/10 12:21:58;;;;;;;10.23;3.70;;;27.20;60.80;;;;;;4226690;28;20054;-59
2021/08/10 12:24:00;;;;;;;10.63;3.03;;;27.20;60.80;;;;;;4232566;28;20047;-57
2021/08/10 12:26:17;;;;;;;11.15;3.25;;;27.20;60.70;;;;;;4232219;28;20112;-58
2021/08/10 12:28:20;;;;;;;9.43;3.72;;;27.30;60.70;;;;;;4233043;28;20051;-58